createdAt,value
2018-07-28T00:00:13.248Z,0
2018-07-28T00:00:38.847Z,0
2018-07-28T00:01:04.413Z,0
2018-07-28T00:01:30.010Z,0
2018-07-28T00:01:55.626Z,0
2018-07-28T00:02:21.208Z,0
2018-07-28T00:02:46.837Z,0
2018-07-28T00:03:12.415Z,0
2018-07-28T00:03:37.999Z,0
2018-07-28T00:04:03.568Z,0
2018-07-28T00:04:29.136Z,0
2018-07-28T00:04:54.716Z,0
2018-07-28T00:05:20.292Z,0
2018-07-28T00:05:45.861Z,0
2018-07-28T00:06:11.438Z,0
2018-07-28T00:06:37.039Z,0
2018-07-28T00:07:02.605Z,0
2018-07-28T00:07:28.175Z,0
2018-07-28T00:07:53.762Z,0
2018-07-28T00:08:19.323Z,0
2018-07-28T00:08:44.874Z,0
2018-07-28T00:09:10.453Z,0
2018-07-28T00:09:36.038Z,0
2018-07-28T00:10:01.622Z,0
2018-07-28T00:10:27.204Z,0
2018-07-28T00:10:52.784Z,0
2018-07-28T00:11:18.366Z,0
2018-07-28T00:11:43.966Z,0
2018-07-28T00:12:09.530Z,0
2018-07-28T00:12:35.122Z,0
2018-07-28T00:13:00.669Z,0
2018-07-28T00:13:26.275Z,0
2018-07-28T00:13:51.859Z,0
2018-07-28T00:14:17.454Z,0
2018-07-28T00:14:43.012Z,0
2018-07-28T00:15:08.584Z,0
2018-07-28T00:15:34.146Z,0
2018-07-28T00:15:59.709Z,0
2018-07-28T00:16:25.279Z,0
2018-07-28T00:16:50.853Z,0
2018-07-28T00:17:16.438Z,0
2018-07-28T00:17:42.012Z,0
2018-07-28T00:18:07.580Z,0
2018-07-28T00:18:33.171Z,0
2018-07-28T00:18:58.749Z,0
2018-07-28T00:19:24.316Z,0
2018-07-28T00:19:49.889Z,0
2018-07-28T00:20:15.454Z,0
2018-07-28T00:20:41.033Z,0
2018-07-28T00:21:06.634Z,0
2018-07-28T00:21:32.202Z,0
2018-07-28T00:21:57.784Z,0
2018-07-28T00:22:23.361Z,0
2018-07-28T00:22:48.934Z,0
2018-07-28T00:23:14.509Z,0
2018-07-28T00:23:40.096Z,0
2018-07-28T00:24:05.673Z,0
2018-07-28T00:24:31.247Z,0
2018-07-28T00:24:56.817Z,0
2018-07-28T00:25:22.415Z,0
2018-07-28T00:25:47.976Z,0
2018-07-28T00:26:13.548Z,0
2018-07-28T00:26:39.102Z,0
2018-07-28T00:27:04.698Z,0
2018-07-28T00:27:30.267Z,0
2018-07-28T00:27:55.865Z,0
2018-07-28T00:28:21.446Z,0
2018-07-28T00:28:47.022Z,0
2018-07-28T00:29:12.614Z,0
2018-07-28T00:29:38.181Z,0
2018-07-28T00:30:03.772Z,0
2018-07-28T00:30:29.340Z,0
2018-07-28T00:30:54.917Z,0
2018-07-28T00:31:20.504Z,0
2018-07-28T00:31:46.081Z,0
2018-07-28T00:32:11.655Z,0
2018-07-28T00:32:37.238Z,0
2018-07-28T00:33:02.811Z,0
2018-07-28T00:33:28.396Z,0
2018-07-28T00:33:53.978Z,0
2018-07-28T00:34:19.557Z,0
2018-07-28T00:34:45.125Z,0
2018-07-28T00:35:10.718Z,0
2018-07-28T00:35:36.284Z,0
2018-07-28T00:36:01.858Z,0
2018-07-28T00:36:27.440Z,0
2018-07-28T00:36:53.031Z,0
2018-07-28T00:37:18.608Z,0
2018-07-28T00:37:44.179Z,0
2018-07-28T00:38:09.756Z,0
2018-07-28T00:38:35.326Z,0
2018-07-28T00:39:00.921Z,0
2018-07-28T00:39:26.520Z,0
2018-07-28T00:39:52.047Z,0
2018-07-28T00:40:17.614Z,0
2018-07-28T00:40:43.197Z,0
2018-07-28T00:41:08.761Z,0
2018-07-28T00:41:34.350Z,0
2018-07-28T00:41:59.921Z,0
2018-07-28T00:42:25.499Z,0
2018-07-28T00:42:51.062Z,0
2018-07-28T00:43:16.644Z,0
2018-07-28T00:43:42.233Z,0
2018-07-28T00:44:07.794Z,0
2018-07-28T00:44:33.361Z,0
2018-07-28T00:44:58.933Z,0
2018-07-28T00:45:24.513Z,0
2018-07-28T00:45:50.081Z,0
2018-07-28T00:46:15.651Z,0
2018-07-28T00:46:41.233Z,0
2018-07-28T00:47:06.808Z,0
2018-07-28T00:47:32.377Z,0
2018-07-28T00:47:57.951Z,0
2018-07-28T00:48:23.510Z,0
2018-07-28T00:48:49.092Z,0
2018-07-28T00:49:14.659Z,0
2018-07-28T00:49:40.231Z,0
2018-07-28T00:50:05.827Z,0
2018-07-28T00:50:31.406Z,0
2018-07-28T00:50:56.983Z,0
2018-07-28T00:51:22.553Z,0
2018-07-28T00:51:48.129Z,0
2018-07-28T00:52:13.711Z,0
2018-07-28T00:52:39.336Z,0
2018-07-28T00:53:04.913Z,0
2018-07-28T00:53:30.498Z,0
2018-07-28T00:53:56.063Z,0
2018-07-28T00:54:21.653Z,0
2018-07-28T00:54:47.233Z,0
2018-07-28T00:55:12.803Z,0
2018-07-28T00:55:38.393Z,0
2018-07-28T00:56:03.962Z,0
2018-07-28T00:56:29.556Z,0
2018-07-28T00:56:55.115Z,0
2018-07-28T00:57:20.694Z,0
2018-07-28T00:57:46.281Z,0
2018-07-28T00:58:11.857Z,0
2018-07-28T00:58:37.438Z,0
2018-07-28T00:59:03.005Z,0
2018-07-28T00:59:28.573Z,0
2018-07-28T00:59:54.177Z,0
2018-07-28T01:00:19.738Z,0
2018-07-28T01:00:45.333Z,0
2018-07-28T01:01:10.922Z,0
2018-07-28T01:01:36.502Z,0
2018-07-28T01:02:02.073Z,0
2018-07-28T01:02:27.666Z,0
2018-07-28T01:02:53.223Z,0
2018-07-28T01:03:18.783Z,0
2018-07-28T01:03:44.350Z,0
2018-07-28T01:04:09.905Z,0
2018-07-28T01:04:35.474Z,0
2018-07-28T01:05:01.068Z,0
2018-07-28T01:05:26.612Z,0
2018-07-28T01:05:52.218Z,0
2018-07-28T01:06:17.775Z,0
2018-07-28T01:06:43.345Z,0
2018-07-28T01:07:08.913Z,0
2018-07-28T01:07:34.499Z,0
2018-07-28T01:08:00.080Z,0
2018-07-28T01:08:25.647Z,0
2018-07-28T01:08:51.223Z,0
2018-07-28T01:09:16.806Z,0
2018-07-28T01:09:42.394Z,0
2018-07-28T01:10:07.984Z,0
2018-07-28T01:10:33.570Z,0
2018-07-28T01:10:59.120Z,0
2018-07-28T01:11:24.701Z,0
2018-07-28T01:11:50.283Z,0
2018-07-28T01:12:15.852Z,0
2018-07-28T01:12:41.429Z,0
2018-07-28T01:13:07.003Z,0
2018-07-28T01:13:32.592Z,0
2018-07-28T01:13:58.173Z,0
2018-07-28T01:14:23.740Z,0
2018-07-28T01:14:49.305Z,0
2018-07-28T01:15:14.881Z,0
2018-07-28T01:15:40.446Z,0
2018-07-28T01:16:06.021Z,0
2018-07-28T01:16:31.603Z,0
2018-07-28T01:16:57.183Z,0
2018-07-28T01:17:22.753Z,0
2018-07-28T01:17:48.317Z,0
2018-07-28T01:18:13.890Z,0
2018-07-28T01:18:39.475Z,0
2018-07-28T01:19:05.061Z,0
2018-07-28T01:19:30.631Z,0
2018-07-28T01:19:56.213Z,0
2018-07-28T01:20:21.796Z,0
2018-07-28T01:20:47.386Z,0
2018-07-28T01:21:12.961Z,0
2018-07-28T01:21:38.540Z,0
2018-07-28T01:22:04.136Z,0
2018-07-28T01:22:29.734Z,0
2018-07-28T01:22:55.314Z,0
2018-07-28T01:23:20.897Z,0
2018-07-28T01:23:46.459Z,0
2018-07-28T01:24:12.039Z,0
2018-07-28T01:24:37.604Z,0
2018-07-28T01:25:03.183Z,0
2018-07-28T01:25:28.759Z,0
2018-07-28T01:25:54.320Z,0
2018-07-28T01:26:19.879Z,0
2018-07-28T01:26:45.453Z,0
2018-07-28T01:27:11.016Z,0
2018-07-28T01:27:36.597Z,0
2018-07-28T01:28:02.173Z,0
2018-07-28T01:28:27.734Z,0
2018-07-28T01:28:53.310Z,0
2018-07-28T01:29:18.878Z,0
2018-07-28T01:29:44.444Z,0
2018-07-28T01:30:10.074Z,0
2018-07-28T01:30:35.601Z,0
2018-07-28T01:31:01.168Z,0
2018-07-28T01:31:26.732Z,0
2018-07-28T01:31:52.316Z,0
2018-07-28T01:32:17.887Z,0
2018-07-28T01:32:43.452Z,0
2018-07-28T01:33:09.031Z,0
2018-07-28T01:33:34.609Z,0
2018-07-28T01:34:00.214Z,0
2018-07-28T01:34:25.765Z,0
2018-07-28T01:34:51.335Z,0
2018-07-28T01:35:16.904Z,0
2018-07-28T01:35:42.505Z,0
2018-07-28T01:36:08.078Z,0
2018-07-28T01:36:33.644Z,0
2018-07-28T01:36:59.221Z,0
2018-07-28T01:37:24.798Z,0
2018-07-28T01:37:50.371Z,0
2018-07-28T01:38:15.954Z,0
2018-07-28T01:38:41.523Z,0
2018-07-28T01:39:07.107Z,0
2018-07-28T01:39:32.671Z,0
2018-07-28T01:39:58.221Z,0
2018-07-28T01:40:23.797Z,0
2018-07-28T01:40:49.352Z,0
2018-07-28T01:41:14.929Z,0
2018-07-28T01:41:40.517Z,0
2018-07-28T01:42:06.083Z,0
2018-07-28T01:42:31.667Z,0
2018-07-28T01:42:57.239Z,0
2018-07-28T01:43:22.824Z,0
2018-07-28T01:43:48.396Z,0
2018-07-28T01:44:13.950Z,0
2018-07-28T01:44:39.540Z,0
2018-07-28T01:45:05.120Z,0
2018-07-28T01:45:30.713Z,0
2018-07-28T01:45:56.278Z,0
2018-07-28T01:46:21.844Z,0
2018-07-28T01:46:47.411Z,0
2018-07-28T01:47:12.986Z,0
2018-07-28T01:47:38.569Z,0
2018-07-28T01:48:04.141Z,0
2018-07-28T01:48:29.710Z,0
2018-07-28T01:48:55.281Z,0
2018-07-28T01:49:20.932Z,0
2018-07-28T01:49:46.476Z,0
2018-07-28T01:50:12.044Z,0
2018-07-28T01:50:37.614Z,0
2018-07-28T01:51:03.188Z,0
2018-07-28T01:51:28.758Z,0
2018-07-28T01:51:54.338Z,0
2018-07-28T01:52:19.905Z,0
2018-07-28T01:52:45.479Z,0
2018-07-28T01:53:11.060Z,0
2018-07-28T01:53:36.623Z,0
2018-07-28T01:54:02.194Z,0
2018-07-28T01:54:27.776Z,0
2018-07-28T01:54:53.342Z,0
2018-07-28T01:55:18.921Z,0
2018-07-28T01:55:44.503Z,0
2018-07-28T01:56:10.067Z,0
2018-07-28T01:56:35.642Z,0
2018-07-28T01:57:01.238Z,0
2018-07-28T01:57:26.818Z,0
2018-07-28T01:57:52.403Z,0
2018-07-28T01:58:17.995Z,0
2018-07-28T01:58:43.568Z,0
2018-07-28T01:59:09.144Z,0
2018-07-28T01:59:34.717Z,0
2018-07-28T02:00:00.299Z,0
2018-07-28T02:00:25.862Z,0
2018-07-28T02:00:51.444Z,0
2018-07-28T02:01:17.018Z,0
2018-07-28T02:01:42.597Z,0
2018-07-28T02:02:08.198Z,0
2018-07-28T02:02:33.772Z,0
2018-07-28T02:02:59.333Z,0
2018-07-28T02:03:24.934Z,0
2018-07-28T02:03:50.511Z,0
2018-07-28T02:04:16.070Z,0
2018-07-28T02:04:41.648Z,0
2018-07-28T02:05:07.240Z,0
2018-07-28T02:05:32.849Z,0
2018-07-28T02:05:58.423Z,0
2018-07-28T02:06:23.991Z,0
2018-07-28T02:06:49.574Z,0
2018-07-28T02:07:15.152Z,0
2018-07-28T02:07:40.738Z,0
2018-07-28T02:08:06.302Z,0
2018-07-28T02:08:31.894Z,0
2018-07-28T02:08:57.473Z,0
2018-07-28T02:09:23.029Z,0
2018-07-28T02:09:48.616Z,0
2018-07-28T02:10:14.176Z,0
2018-07-28T02:10:39.747Z,0
2018-07-28T02:11:05.347Z,0
2018-07-28T02:11:30.915Z,0
2018-07-28T02:11:56.489Z,0
2018-07-28T02:12:22.083Z,0
2018-07-28T02:12:47.649Z,0
2018-07-28T02:13:13.222Z,0
2018-07-28T02:13:38.791Z,0
2018-07-28T02:14:04.367Z,0
2018-07-28T02:14:29.929Z,0
2018-07-28T02:14:55.491Z,0
2018-07-28T02:15:21.085Z,0
2018-07-28T02:15:47.626Z,0
2018-07-28T02:16:13.186Z,0
2018-07-28T02:16:38.768Z,0
2018-07-28T02:17:04.352Z,0
2018-07-28T02:17:29.923Z,0
2018-07-28T02:17:55.488Z,0
2018-07-28T02:18:21.052Z,0
2018-07-28T02:18:46.637Z,0
2018-07-28T02:19:12.210Z,0
2018-07-28T02:19:37.775Z,0
2018-07-28T02:20:03.336Z,0
2018-07-28T02:20:28.906Z,0
2018-07-28T02:20:54.485Z,0
2018-07-28T02:21:20.055Z,0
2018-07-28T02:21:45.627Z,0
2018-07-28T02:22:11.180Z,0
2018-07-28T02:22:36.751Z,0
2018-07-28T02:23:02.318Z,0
2018-07-28T02:23:27.884Z,0
2018-07-28T02:23:53.457Z,0
2018-07-28T02:24:19.042Z,0
2018-07-28T02:24:44.619Z,0
2018-07-28T02:25:10.211Z,0
2018-07-28T02:25:35.782Z,0
2018-07-28T02:26:01.355Z,0
2018-07-28T02:26:26.927Z,0
2018-07-28T02:26:52.495Z,0
2018-07-28T02:27:18.067Z,0
2018-07-28T02:27:43.639Z,0
2018-07-28T02:28:09.210Z,0
2018-07-28T02:28:34.765Z,0
2018-07-28T02:29:00.344Z,0
2018-07-28T02:29:25.913Z,0
2018-07-28T02:29:51.488Z,0
2018-07-28T02:30:17.067Z,0
2018-07-28T02:30:42.637Z,0
2018-07-28T02:31:08.240Z,0
2018-07-28T02:31:33.822Z,0
2018-07-28T02:31:59.404Z,0
2018-07-28T02:32:24.974Z,0
2018-07-28T02:32:50.527Z,0
2018-07-28T02:33:16.088Z,0
2018-07-28T02:33:41.674Z,0
2018-07-28T02:34:07.254Z,0
2018-07-28T02:34:32.844Z,0
2018-07-28T02:34:58.415Z,0
2018-07-28T02:35:23.977Z,0
2018-07-28T02:35:49.566Z,0
2018-07-28T02:36:15.124Z,0
2018-07-28T02:36:40.697Z,0
2018-07-28T02:37:06.265Z,0
2018-07-28T02:37:31.824Z,0
2018-07-28T02:37:57.419Z,0
2018-07-28T02:38:23.000Z,0
2018-07-28T02:38:48.568Z,0
2018-07-28T02:39:14.203Z,0
2018-07-28T02:39:39.852Z,0
2018-07-28T02:40:05.408Z,0
2018-07-28T02:40:31.004Z,0
2018-07-28T02:40:56.577Z,0
2018-07-28T02:41:22.154Z,0
2018-07-28T02:41:47.732Z,0
2018-07-28T02:42:13.310Z,0
2018-07-28T02:42:38.892Z,0
2018-07-28T02:43:04.483Z,0
2018-07-28T02:43:30.043Z,0
2018-07-28T02:43:55.648Z,0
2018-07-28T02:44:21.226Z,0
2018-07-28T02:44:46.786Z,0
2018-07-28T02:45:12.339Z,0
2018-07-28T02:45:37.903Z,0
2018-07-28T02:46:03.467Z,0
2018-07-28T02:46:29.043Z,0
2018-07-28T02:46:54.627Z,0
2018-07-28T02:47:20.213Z,0
2018-07-28T02:47:45.786Z,0
2018-07-28T02:48:11.360Z,0
2018-07-28T02:48:36.922Z,0
2018-07-28T02:49:02.500Z,0
2018-07-28T02:49:28.089Z,0
2018-07-28T02:49:53.681Z,0
2018-07-28T02:50:19.262Z,0
2018-07-28T02:50:44.871Z,0
2018-07-28T02:51:10.444Z,0
2018-07-28T02:51:36.013Z,0
2018-07-28T02:52:01.603Z,0
2018-07-28T02:52:27.184Z,0
2018-07-28T02:52:52.756Z,0
2018-07-28T02:53:18.346Z,0
2018-07-28T02:53:43.906Z,0
2018-07-28T02:54:09.483Z,0
2018-07-28T02:54:35.060Z,0
2018-07-28T02:55:00.644Z,0
2018-07-28T02:55:26.236Z,0
2018-07-28T02:55:51.805Z,0
2018-07-28T02:56:17.398Z,0
2018-07-28T02:56:42.962Z,0
2018-07-28T02:57:08.564Z,0
2018-07-28T02:57:34.140Z,0
2018-07-28T02:57:59.721Z,0
2018-07-28T02:58:25.296Z,0
2018-07-28T02:58:50.881Z,0
2018-07-28T02:59:16.451Z,0
2018-07-28T02:59:42.034Z,0
2018-07-28T03:00:07.621Z,0
2018-07-28T03:00:33.171Z,0
2018-07-28T03:00:58.748Z,0
2018-07-28T03:01:24.310Z,0
2018-07-28T03:01:49.919Z,0
2018-07-28T03:02:15.482Z,0
2018-07-28T03:02:41.046Z,0
2018-07-28T03:03:06.628Z,0
2018-07-28T03:03:32.208Z,0
2018-07-28T03:03:57.792Z,0
2018-07-28T03:04:23.361Z,0
2018-07-28T03:04:48.930Z,0
2018-07-28T03:05:14.502Z,0
2018-07-28T03:05:40.050Z,0
2018-07-28T03:06:05.622Z,0
2018-07-28T03:06:31.225Z,0
2018-07-28T03:06:56.801Z,0
2018-07-28T03:07:22.363Z,0
2018-07-28T03:07:47.944Z,0
2018-07-28T03:08:13.514Z,0
2018-07-28T03:08:39.092Z,0
2018-07-28T03:09:04.686Z,0
2018-07-28T03:09:30.254Z,0
2018-07-28T03:09:55.832Z,0
2018-07-28T03:10:21.396Z,0
2018-07-28T03:10:46.965Z,0
2018-07-28T03:11:12.541Z,0
2018-07-28T03:11:38.119Z,0
2018-07-28T03:12:03.738Z,0
2018-07-28T03:12:29.299Z,0
2018-07-28T03:12:54.867Z,0
2018-07-28T03:13:20.433Z,0
2018-07-28T03:13:46.010Z,0
2018-07-28T03:14:11.586Z,0
2018-07-28T03:14:37.168Z,0
2018-07-28T03:15:02.743Z,0
2018-07-28T03:15:28.300Z,0
2018-07-28T03:15:53.879Z,0
2018-07-28T03:16:19.458Z,0
2018-07-28T03:16:45.026Z,0
2018-07-28T03:17:10.608Z,0
2018-07-28T03:17:36.178Z,0
2018-07-28T03:18:01.769Z,0
2018-07-28T03:18:27.334Z,0
2018-07-28T03:18:52.905Z,0
2018-07-28T03:19:18.474Z,0
2018-07-28T03:19:44.054Z,0
2018-07-28T03:20:09.616Z,0
2018-07-28T03:20:35.188Z,0
2018-07-28T03:21:00.813Z,0
2018-07-28T03:21:26.335Z,0
2018-07-28T03:21:51.918Z,0
2018-07-28T03:22:17.498Z,0
2018-07-28T03:22:43.079Z,0
2018-07-28T03:23:08.658Z,0
2018-07-28T03:23:34.227Z,0
2018-07-28T03:23:59.809Z,0
2018-07-28T03:24:25.387Z,0
2018-07-28T03:24:50.960Z,0
2018-07-28T03:25:16.531Z,0
2018-07-28T03:25:42.129Z,0
2018-07-28T03:26:07.698Z,0
2018-07-28T03:26:33.290Z,0
2018-07-28T03:26:58.874Z,0
2018-07-28T03:27:24.460Z,0
2018-07-28T03:27:50.022Z,0
2018-07-28T03:28:15.596Z,0
2018-07-28T03:28:41.168Z,0
2018-07-28T03:29:06.743Z,0
2018-07-28T03:29:32.314Z,0
2018-07-28T03:29:57.889Z,0
2018-07-28T03:30:23.471Z,0
2018-07-28T03:30:49.088Z,0
2018-07-28T03:31:14.601Z,0
2018-07-28T03:31:40.170Z,0
2018-07-28T03:32:05.754Z,0
2018-07-28T03:32:31.321Z,0
2018-07-28T03:32:56.888Z,0
2018-07-28T03:33:22.472Z,0
2018-07-28T03:33:48.047Z,0
2018-07-28T03:34:13.614Z,0
2018-07-28T03:34:39.179Z,0
2018-07-28T03:35:04.768Z,0
2018-07-28T03:35:30.312Z,0
2018-07-28T03:35:55.879Z,0
2018-07-28T03:36:21.450Z,0
2018-07-28T03:36:47.037Z,0
2018-07-28T03:37:12.599Z,0
2018-07-28T03:37:38.167Z,0
2018-07-28T03:38:03.752Z,0
2018-07-28T03:38:29.333Z,0
2018-07-28T03:38:54.901Z,0
2018-07-28T03:39:20.487Z,4
2018-07-28T03:39:46.070Z,4
2018-07-28T03:40:11.640Z,4
2018-07-28T03:40:37.244Z,4
2018-07-28T03:41:02.859Z,4
2018-07-28T03:41:28.414Z,4
2018-07-28T03:41:53.992Z,4
2018-07-28T03:42:19.570Z,4
2018-07-28T03:42:45.144Z,4
2018-07-28T03:43:10.709Z,4
2018-07-28T03:43:36.287Z,0
2018-07-28T03:44:01.857Z,0
2018-07-28T03:44:27.432Z,0
2018-07-28T03:44:53.016Z,0
2018-07-28T03:45:18.615Z,0
2018-07-28T03:45:44.194Z,0
2018-07-28T03:46:09.785Z,0
2018-07-28T03:46:35.393Z,0
2018-07-28T03:47:00.979Z,0
2018-07-28T03:47:26.543Z,4
2018-07-28T03:47:52.099Z,4
2018-07-28T03:48:17.675Z,4
2018-07-28T03:48:43.248Z,4
2018-07-28T03:49:08.875Z,4
2018-07-28T03:49:34.383Z,4
2018-07-28T03:49:59.979Z,4
2018-07-28T03:50:25.563Z,4
2018-07-28T03:50:51.127Z,4
2018-07-28T03:51:17.201Z,4
2018-07-28T03:51:42.770Z,4
2018-07-28T03:52:08.339Z,4
2018-07-28T03:52:33.913Z,4
2018-07-28T03:52:59.485Z,4
2018-07-28T03:53:25.120Z,0
2018-07-28T03:53:50.704Z,0
2018-07-28T03:54:16.280Z,4
2018-07-28T03:54:41.844Z,4
2018-07-28T03:55:07.421Z,4
2018-07-28T03:55:32.997Z,4
2018-07-28T03:55:58.585Z,4
2018-07-28T03:56:24.177Z,4
2018-07-28T03:56:49.746Z,4
2018-07-28T03:57:15.312Z,4
2018-07-28T03:57:40.897Z,4
2018-07-28T03:58:06.469Z,4
2018-07-28T03:58:32.043Z,4
2018-07-28T03:58:57.610Z,4
2018-07-28T03:59:23.181Z,4
2018-07-28T03:59:48.771Z,4
2018-07-28T04:00:14.373Z,4
2018-07-28T04:00:39.926Z,8
2018-07-28T04:01:05.509Z,8
2018-07-28T04:01:31.085Z,8
2018-07-28T04:01:56.657Z,8
2018-07-28T04:02:22.218Z,4
2018-07-28T04:02:47.799Z,4
2018-07-28T04:03:13.375Z,4
2018-07-28T04:03:38.918Z,4
2018-07-28T04:04:04.517Z,4
2018-07-28T04:04:30.077Z,4
2018-07-28T04:04:56.165Z,4
2018-07-28T04:05:21.207Z,4
2018-07-28T04:05:46.813Z,4
2018-07-28T04:06:12.417Z,4
2018-07-28T04:06:37.943Z,8
2018-07-28T04:07:03.508Z,8
2018-07-28T04:07:29.092Z,8
2018-07-28T04:07:54.671Z,8
2018-07-28T04:08:20.245Z,8
2018-07-28T04:08:45.817Z,8
2018-07-28T04:09:11.387Z,8
2018-07-28T04:09:36.975Z,8
2018-07-28T04:10:02.575Z,8
2018-07-28T04:10:28.139Z,8
2018-07-28T04:10:53.736Z,8
2018-07-28T04:11:19.306Z,8
2018-07-28T04:11:44.877Z,4
2018-07-28T04:12:10.483Z,4
2018-07-28T04:12:36.057Z,8
2018-07-28T04:13:01.631Z,8
2018-07-28T04:13:27.189Z,8
2018-07-28T04:13:52.766Z,8
2018-07-28T04:14:18.375Z,8
2018-07-28T04:14:43.906Z,8
2018-07-28T04:15:09.493Z,8
2018-07-28T04:15:35.072Z,8
2018-07-28T04:16:00.647Z,8
2018-07-28T04:16:26.215Z,8
2018-07-28T04:16:51.803Z,8
2018-07-28T04:17:17.375Z,8
2018-07-28T04:17:43.449Z,8
2018-07-28T04:18:09.023Z,12
2018-07-28T04:18:34.610Z,12
2018-07-28T04:19:00.179Z,12
2018-07-28T04:19:25.769Z,12
2018-07-28T04:19:51.342Z,12
2018-07-28T04:20:16.903Z,8
2018-07-28T04:20:42.493Z,8
2018-07-28T04:21:08.084Z,8
2018-07-28T04:21:33.673Z,8
2018-07-28T04:21:59.237Z,8
2018-07-28T04:22:24.814Z,8
2018-07-28T04:22:50.389Z,8
2018-07-28T04:23:15.996Z,8
2018-07-28T04:23:41.576Z,12
2018-07-28T04:24:07.156Z,12
2018-07-28T04:24:32.708Z,12
2018-07-28T04:24:58.292Z,12
2018-07-28T04:25:23.870Z,12
2018-07-28T04:25:49.443Z,12
2018-07-28T04:26:15.034Z,12
2018-07-28T04:26:40.612Z,12
2018-07-28T04:27:06.176Z,12
2018-07-28T04:27:31.759Z,12
2018-07-28T04:27:57.369Z,12
2018-07-28T04:28:22.937Z,12
2018-07-28T04:28:48.499Z,8
2018-07-28T04:29:14.067Z,8
2018-07-28T04:29:39.642Z,12
2018-07-28T04:30:05.191Z,12
2018-07-28T04:30:30.775Z,12
2018-07-28T04:30:56.393Z,12
2018-07-28T04:31:21.967Z,12
2018-07-28T04:31:47.525Z,12
2018-07-28T04:32:13.097Z,12
2018-07-28T04:32:38.680Z,12
2018-07-28T04:33:04.255Z,12
2018-07-28T04:33:29.830Z,12
2018-07-28T04:33:55.407Z,12
2018-07-28T04:34:20.984Z,16
2018-07-28T04:34:46.567Z,16
2018-07-28T04:35:12.124Z,16
2018-07-28T04:35:37.699Z,12
2018-07-28T04:36:03.261Z,12
2018-07-28T04:36:28.845Z,12
2018-07-28T04:36:54.410Z,12
2018-07-28T04:37:19.965Z,12
2018-07-28T04:37:45.542Z,12
2018-07-28T04:38:11.111Z,12
2018-07-28T04:38:36.686Z,12
2018-07-28T04:39:02.245Z,16
2018-07-28T04:39:27.813Z,16
2018-07-28T04:39:53.379Z,16
2018-07-28T04:40:18.952Z,16
2018-07-28T04:40:44.547Z,16
2018-07-28T04:41:10.159Z,16
2018-07-28T04:41:35.779Z,16
2018-07-28T04:42:01.363Z,16
2018-07-28T04:42:26.930Z,16
2018-07-28T04:42:52.508Z,16
2018-07-28T04:43:18.081Z,12
2018-07-28T04:43:43.647Z,12
2018-07-28T04:44:09.218Z,12
2018-07-28T04:44:34.796Z,12
2018-07-28T04:45:00.394Z,12
2018-07-28T04:45:25.960Z,16
2018-07-28T04:45:51.535Z,16
2018-07-28T04:46:17.103Z,16
2018-07-28T04:46:42.677Z,16
2018-07-28T04:47:08.252Z,16
2018-07-28T04:47:33.832Z,16
2018-07-28T04:47:59.401Z,16
2018-07-28T04:48:24.970Z,16
2018-07-28T04:48:50.553Z,16
2018-07-28T04:49:16.121Z,16
2018-07-28T04:49:41.694Z,16
2018-07-28T04:50:07.278Z,16
2018-07-28T04:50:32.848Z,16
2018-07-28T04:50:58.427Z,16
2018-07-28T04:51:23.995Z,16
2018-07-28T04:51:49.577Z,16
2018-07-28T04:52:15.160Z,16
2018-07-28T04:52:40.732Z,16
2018-07-28T04:53:06.294Z,16
2018-07-28T04:53:31.870Z,16
2018-07-28T04:53:57.462Z,16
2018-07-28T04:54:23.046Z,16
2018-07-28T04:54:48.635Z,16
2018-07-28T04:55:14.199Z,16
2018-07-28T04:55:39.833Z,16
2018-07-28T04:56:05.402Z,16
2018-07-28T04:56:31.005Z,16
2018-07-28T04:56:56.578Z,16
2018-07-28T04:57:22.206Z,16
2018-07-28T04:57:47.780Z,16
2018-07-28T04:58:13.356Z,16
2018-07-28T04:58:38.950Z,16
2018-07-28T04:59:04.522Z,16
2018-07-28T04:59:30.101Z,16
2018-07-28T04:59:55.666Z,16
2018-07-28T05:00:21.261Z,20
2018-07-28T05:00:46.838Z,20
2018-07-28T05:01:12.409Z,20
2018-07-28T05:01:37.972Z,20
2018-07-28T05:02:03.570Z,20
2018-07-28T05:02:29.131Z,20
2018-07-28T05:02:54.699Z,16
2018-07-28T05:03:20.256Z,16
2018-07-28T05:03:45.838Z,16
2018-07-28T05:04:11.417Z,16
2018-07-28T05:04:36.998Z,16
2018-07-28T05:05:02.575Z,20
2018-07-28T05:05:28.136Z,20
2018-07-28T05:05:53.728Z,20
2018-07-28T05:06:19.297Z,20
2018-07-28T05:06:44.871Z,20
2018-07-28T05:07:10.517Z,20
2018-07-28T05:07:36.212Z,20
2018-07-28T05:08:01.635Z,20
2018-07-28T05:08:27.207Z,20
2018-07-28T05:08:52.762Z,20
2018-07-28T05:09:18.355Z,20
2018-07-28T05:09:43.933Z,20
2018-07-28T05:10:09.504Z,20
2018-07-28T05:10:35.085Z,20
2018-07-28T05:11:00.649Z,20
2018-07-28T05:11:26.242Z,20
2018-07-28T05:11:51.796Z,20
2018-07-28T05:12:17.376Z,20
2018-07-28T05:12:42.966Z,20
2018-07-28T05:13:08.553Z,20
2018-07-28T05:13:34.118Z,20
2018-07-28T05:13:59.700Z,20
2018-07-28T05:14:25.294Z,20
2018-07-28T05:14:50.858Z,20
2018-07-28T05:15:16.443Z,20
2018-07-28T05:15:42.029Z,20
2018-07-28T05:16:07.584Z,20
2018-07-28T05:16:33.154Z,20
2018-07-28T05:16:58.731Z,20
2018-07-28T05:17:24.295Z,20
2018-07-28T05:17:49.874Z,24
2018-07-28T05:18:15.445Z,24
2018-07-28T05:18:41.020Z,24
2018-07-28T05:19:06.584Z,24
2018-07-28T05:19:32.166Z,24
2018-07-28T05:19:57.750Z,24
2018-07-28T05:20:23.336Z,24
2018-07-28T05:20:48.906Z,24
2018-07-28T05:21:14.470Z,20
2018-07-28T05:21:40.053Z,20
2018-07-28T05:22:05.634Z,20
2018-07-28T05:22:31.202Z,20
2018-07-28T05:22:56.787Z,20
2018-07-28T05:23:22.365Z,20
2018-07-28T05:23:48.013Z,20
2018-07-28T05:24:13.513Z,20
2018-07-28T05:24:39.117Z,20
2018-07-28T05:25:04.702Z,20
2018-07-28T05:25:30.273Z,20
2018-07-28T05:25:55.851Z,20
2018-07-28T05:26:21.425Z,24
2018-07-28T05:26:46.990Z,24
2018-07-28T05:27:12.565Z,24
2018-07-28T05:27:38.136Z,24
2018-07-28T05:28:03.715Z,24
2018-07-28T05:28:29.288Z,24
2018-07-28T05:28:54.864Z,24
2018-07-28T05:29:20.440Z,24
2018-07-28T05:29:46.154Z,24
2018-07-28T05:30:11.591Z,24
2018-07-28T05:30:37.174Z,24
2018-07-28T05:31:02.742Z,24
2018-07-28T05:31:28.321Z,24
2018-07-28T05:31:53.890Z,24
2018-07-28T05:32:19.447Z,24
2018-07-28T05:32:45.042Z,28
2018-07-28T05:33:10.631Z,28
2018-07-28T05:33:36.210Z,28
2018-07-28T05:34:01.792Z,28
2018-07-28T05:34:27.354Z,28
2018-07-28T05:34:52.923Z,24
2018-07-28T05:35:18.517Z,20
2018-07-28T05:35:44.081Z,24
2018-07-28T05:36:09.648Z,32
2018-07-28T05:36:35.202Z,36
2018-07-28T05:37:00.791Z,36
2018-07-28T05:37:26.383Z,36
2018-07-28T05:37:51.953Z,40
2018-07-28T05:38:17.533Z,40
2018-07-28T05:38:43.104Z,36
2018-07-28T05:39:08.745Z,32
2018-07-28T05:39:34.235Z,40
2018-07-28T05:39:59.823Z,48
2018-07-28T05:40:25.395Z,48
2018-07-28T05:40:50.991Z,48
2018-07-28T05:41:16.569Z,44
2018-07-28T05:41:42.153Z,48
2018-07-28T05:42:07.729Z,40
2018-07-28T05:42:33.320Z,36
2018-07-28T05:42:58.875Z,36
2018-07-28T05:43:24.457Z,44
2018-07-28T05:43:50.049Z,52
2018-07-28T05:44:15.628Z,48
2018-07-28T05:44:41.195Z,52
2018-07-28T05:45:06.769Z,56
2018-07-28T05:45:32.353Z,56
2018-07-28T05:45:57.941Z,52
2018-07-28T05:46:23.533Z,52
2018-07-28T05:46:49.123Z,52
2018-07-28T05:47:14.698Z,52
2018-07-28T05:47:40.287Z,36
2018-07-28T05:48:05.879Z,32
2018-07-28T05:48:31.475Z,28
2018-07-28T05:48:57.039Z,28
2018-07-28T05:49:22.608Z,28
2018-07-28T05:49:48.164Z,28
2018-07-28T05:50:13.814Z,28
2018-07-28T05:50:39.319Z,28
2018-07-28T05:51:04.891Z,36
2018-07-28T05:51:30.460Z,40
2018-07-28T05:51:56.037Z,44
2018-07-28T05:52:21.620Z,40
2018-07-28T05:52:47.185Z,52
2018-07-28T05:53:12.749Z,52
2018-07-28T05:53:38.318Z,40
2018-07-28T05:54:03.887Z,32
2018-07-28T05:54:29.443Z,28
2018-07-28T05:54:55.025Z,28
2018-07-28T05:55:20.595Z,28
2018-07-28T05:55:46.179Z,28
2018-07-28T05:56:11.742Z,32
2018-07-28T05:56:37.327Z,36
2018-07-28T05:57:02.898Z,28
2018-07-28T05:57:28.454Z,28
2018-07-28T05:57:54.030Z,36
2018-07-28T05:58:19.611Z,28
2018-07-28T05:58:45.185Z,24
2018-07-28T05:59:10.762Z,52
2018-07-28T05:59:36.329Z,56
2018-07-28T06:00:01.929Z,52
2018-07-28T06:00:27.498Z,56
2018-07-28T06:00:53.070Z,52
2018-07-28T06:01:18.654Z,52
2018-07-28T06:01:44.231Z,52
2018-07-28T06:02:09.822Z,52
2018-07-28T06:02:35.469Z,52
2018-07-28T06:03:00.951Z,48
2018-07-28T06:03:26.537Z,52
2018-07-28T06:03:52.113Z,56
2018-07-28T06:04:17.673Z,48
2018-07-28T06:04:43.247Z,52
2018-07-28T06:05:08.834Z,52
2018-07-28T06:05:34.399Z,48
2018-07-28T06:05:59.978Z,56
2018-07-28T06:06:25.557Z,60
2018-07-28T06:06:51.139Z,68
2018-07-28T06:07:16.714Z,76
2018-07-28T06:07:42.287Z,68
2018-07-28T06:08:07.856Z,72
2018-07-28T06:08:33.437Z,100
2018-07-28T06:08:59.013Z,100
2018-07-28T06:09:24.573Z,100
2018-07-28T06:09:50.150Z,88
2018-07-28T06:10:15.726Z,96
2018-07-28T06:10:41.302Z,96
2018-07-28T06:11:06.874Z,100
2018-07-28T06:11:32.440Z,100
2018-07-28T06:11:58.031Z,104
2018-07-28T06:12:23.596Z,104
2018-07-28T06:12:49.195Z,104
2018-07-28T06:13:14.763Z,104
2018-07-28T06:13:40.327Z,100
2018-07-28T06:14:05.948Z,100